createdAt,value
2023-03-15T00:03:43.330Z,7.69
2023-03-15T00:08:50.944Z,7.65
2023-03-15T00:13:56.745Z,7.37
2023-03-15T00:18:59.385Z,6.86
2023-03-15T00:24:00.499Z,6.74
2023-03-15T00:28:59.608Z,6.79
2023-03-15T00:34:00.977Z,6.75
2023-03-15T00:39:04.028Z,6.32
2023-03-15T00:44:04.881Z,6.21
2023-03-15T00:49:05.579Z,6.24
2023-03-15T00:54:06.251Z,6.23
2023-03-15T00:59:08.129Z,6.20
2023-03-15T01:04:11.109Z,5.90
2023-03-15T01:09:13.955Z,5.83
2023-03-15T01:14:16.707Z,5.74
2023-03-15T01:19:18.378Z,5.75
2023-03-15T01:24:28.904Z,5.58
2023-03-15T01:29:28.878Z,5.44
2023-03-15T01:34:28.298Z,5.83
2023-03-15T01:39:29.163Z,5.58
2023-03-15T01:44:50.379Z,5.51
2023-03-15T01:49:54.328Z,5.58
2023-03-15T01:55:06.358Z,5.39
2023-03-15T02:00:25.660Z,5.42
2023-03-15T02:05:34.939Z,5.49
2023-03-15T02:10:40.164Z,5.09
2023-03-15T02:15:40.182Z,5.31
2023-03-15T02:20:50.968Z,5.49
2023-03-15T02:25:51.316Z,5.30
2023-03-15T02:30:53.585Z,5.06
2023-03-15T02:35:52.781Z,4.92
2023-03-15T02:40:51.336Z,4.81
2023-03-15T02:45:53.965Z,4.89
2023-03-15T02:51:06.599Z,5.14
2023-03-15T02:56:06.558Z,4.96
2023-03-15T03:01:06.508Z,4.94
2023-03-15T03:06:10.872Z,4.82
2023-03-15T03:11:11.512Z,4.68
2023-03-15T03:16:09.382Z,5.10
2023-03-15T03:21:11.758Z,4.45
2023-03-15T03:26:17.726Z,4.56
2023-03-15T03:31:24.026Z,4.74
2023-03-15T03:36:25.564Z,4.46
2023-03-15T03:41:24.654Z,4.80
2023-03-15T03:46:26.330Z,4.51
2023-03-15T03:51:24.489Z,4.69
2023-03-15T03:56:26.814Z,4.67
2023-03-15T04:01:27.476Z,4.33
2023-03-15T04:06:29.985Z,4.24
2023-03-15T04:11:30.540Z,4.38
2023-03-15T04:16:32.256Z,4.40
2023-03-15T04:21:35.618Z,4.59
2023-03-15T04:27:00.744Z,4.28
2023-03-15T04:32:22.684Z,4.32
2023-03-15T04:37:45.845Z,4.37
2023-03-15T04:43:09.858Z,4.51
2023-03-15T04:48:17.205Z,4.53
2023-03-15T04:53:41.043Z,4.45
2023-03-15T04:59:02.937Z,4.54
2023-03-15T05:04:29.095Z,4.51
2023-03-15T05:09:57.160Z,4.45
2023-03-15T05:15:06.808Z,4.87
2023-03-15T05:20:29.080Z,4.89
2023-03-15T05:25:58.988Z,4.92
2023-03-15T05:31:22.958Z,4.77
2023-03-15T05:36:45.018Z,4.66
2023-03-15T05:42:11.743Z,4.70
2023-03-15T05:47:34.088Z,4.95
2023-03-15T05:52:43.166Z,5.06
2023-03-15T05:58:12.699Z,5.32
2023-03-15T06:03:23.458Z,5.63
2023-03-15T06:08:34.966Z,6.09
2023-03-15T06:13:37.647Z,6.24
2023-03-15T06:18:47.192Z,5.83
2023-03-15T06:23:46.602Z,5.92
2023-03-15T06:28:45.557Z,6.14
2023-03-15T06:33:47.912Z,5.89
2023-03-15T06:38:53.081Z,6.52
2023-03-15T06:43:56.153Z,6.95
2023-03-15T06:48:57.855Z,7.24
2023-03-15T06:54:00.549Z,7.66
2023-03-15T06:59:02.124Z,8.11
2023-03-15T07:04:02.522Z,8.29
2023-03-15T07:09:04.025Z,8.37
2023-03-15T07:14:06.286Z,8.60
2023-03-15T07:19:05.674Z,8.66
2023-03-15T07:24:09.138Z,8.41
2023-03-15T07:29:11.554Z,8.35
2023-03-15T07:34:43.475Z,8.25
2023-03-15T07:39:45.145Z,8.08
2023-03-15T07:44:45.547Z,8.17
2023-03-15T07:49:47.624Z,8.55
2023-03-15T07:54:47.255Z,9.04
2023-03-15T07:59:47.315Z,9.20
2023-03-15T08:04:59.009Z,9.21
2023-03-15T08:10:09.454Z,9.50
2023-03-15T08:15:12.796Z,9.75
2023-03-15T08:26:05.293Z,10.22
2023-03-15T08:31:16.948Z,10.62
2023-03-15T08:36:22.314Z,11.04
2023-03-15T08:41:21.649Z,11.27
2023-03-15T08:46:25.666Z,11.45
2023-03-15T08:51:26.490Z,11.45
2023-03-15T08:56:27.706Z,11.65
2023-03-15T09:01:26.519Z,11.65
2023-03-15T09:06:33.781Z,11.78
2023-03-15T09:11:33.900Z,12.05
2023-03-15T09:16:32.139Z,12.29
2023-03-15T09:21:33.187Z,12.73
2023-03-15T09:26:35.763Z,12.41
2023-03-15T09:31:36.352Z,12.95
2023-03-15T09:36:36.120Z,12.78
2023-03-15T09:42:11.172Z,12.87
2023-03-15T09:47:21.192Z,13.29
2023-03-15T09:52:24.974Z,13.55
2023-03-15T09:57:31.214Z,13.60
2023-03-15T10:02:36.387Z,13.69
2023-03-15T10:07:35.398Z,13.54
2023-03-15T10:12:46.679Z,13.84
2023-03-15T10:17:46.098Z,13.78
2023-03-15T10:22:48.549Z,14.30
2023-03-15T10:27:51.474Z,14.65
2023-03-15T10:32:54.057Z,14.59
2023-03-15T10:37:55.418Z,14.84
2023-03-15T10:42:54.452Z,14.94
2023-03-15T10:48:00.394Z,15.00
2023-03-15T10:53:08.888Z,14.65
2023-03-15T10:58:31.493Z,14.59
2023-03-15T11:03:32.223Z,14.72
2023-03-15T11:08:44.244Z,14.68
2023-03-15T11:13:44.092Z,14.73
2023-03-15T11:18:48.691Z,15.05
2023-03-15T11:23:51.521Z,15.08
2023-03-15T11:28:54.438Z,15.34
2023-03-15T11:33:55.674Z,15.49
2023-03-15T11:38:57.999Z,15.43
2023-03-15T11:44:00.891Z,15.91
2023-03-15T11:49:16.329Z,16.18
2023-03-15T11:54:14.620Z,15.90
2023-03-15T11:59:16.042Z,15.92
2023-03-15T12:04:28.481Z,15.84
2023-03-15T12:09:34.009Z,15.74
2023-03-15T12:14:34.971Z,15.56
2023-03-15T12:19:36.439Z,15.65
2023-03-15T12:24:39.860Z,15.79
2023-03-15T12:29:42.403Z,15.94
2023-03-15T12:34:47.356Z,16.12
2023-03-15T12:39:47.944Z,16.53
2023-03-15T12:44:53.498Z,16.23
2023-03-15T12:49:59.993Z,16.67
2023-03-15T12:55:00.368Z,16.58
2023-03-15T13:00:13.460Z,16.58
2023-03-15T13:05:37.611Z,16.78
2023-03-15T13:10:35.891Z,16.65
2023-03-15T13:16:08.124Z,16.53
2023-03-15T13:21:24.210Z,16.38
2023-03-15T13:26:42.946Z,16.18
2023-03-15T13:31:46.876Z,16.57
2023-03-15T13:36:58.778Z,16.35
2023-03-15T13:42:04.566Z,15.96
2023-03-15T13:47:08.690Z,16.19
2023-03-15T13:52:12.551Z,16.24
2023-03-15T13:57:19.039Z,16.26
2023-03-15T14:02:25.546Z,16.02
2023-03-15T14:07:36.790Z,15.91
2023-03-15T14:12:35.995Z,15.71
2023-03-15T14:18:00.794Z,15.63
2023-03-15T14:23:06.039Z,15.51
2023-03-15T14:28:08.252Z,15.70
2023-03-15T14:33:33.793Z,15.95
2023-03-15T14:38:33.968Z,15.81
2023-03-15T14:43:32.714Z,15.68
2023-03-15T14:48:32.317Z,15.63
2023-03-15T14:53:35.538Z,15.28
2023-03-15T14:58:37.193Z,15.57
2023-03-15T15:03:49.800Z,15.46
2023-03-15T15:08:49.393Z,15.40
2023-03-15T15:13:48.059Z,15.32
2023-03-15T15:18:56.714Z,15.11
2023-03-15T15:23:59.672Z,15.09
2023-03-15T15:28:58.665Z,15.06
2023-03-15T15:33:57.641Z,15.02
2023-03-15T15:38:56.488Z,14.92
2023-03-15T15:43:54.525Z,14.68
2023-03-15T15:48:55.558Z,14.63
2023-03-15T15:53:55.682Z,14.70
2023-03-15T15:58:56.244Z,14.69
2023-03-15T16:03:54.964Z,14.78
2023-03-15T16:08:57.715Z,14.79
2023-03-15T16:13:58.614Z,14.70
2023-03-15T16:19:02.233Z,14.58
2023-03-15T16:24:25.402Z,14.35
2023-03-15T16:29:33.972Z,14.36
2023-03-15T16:34:35.077Z,14.23
2023-03-15T16:39:37.654Z,14.04
2023-03-15T16:44:37.545Z,13.88
2023-03-15T16:49:47.776Z,13.67
2023-03-15T16:54:48.426Z,13.62
2023-03-15T16:59:50.892Z,13.53
2023-03-15T17:04:51.106Z,13.59
2023-03-15T17:09:53.915Z,13.72
2023-03-15T17:14:56.877Z,13.62
2023-03-15T17:19:59.243Z,13.21
2023-03-15T17:25:08.110Z,12.96
2023-03-15T17:30:25.007Z,13.06
2023-03-15T17:35:30.009Z,13.30
2023-03-15T17:40:31.450Z,12.70
2023-03-15T17:45:35.464Z,13.16
2023-03-15T17:50:35.687Z,12.96
2023-03-15T17:55:35.375Z,12.53
2023-03-15T18:00:32.944Z,12.50
2023-03-15T18:05:35.347Z,12.68
2023-03-15T18:10:43.683Z,12.31
2023-03-15T18:15:45.318Z,12.60
2023-03-15T18:20:47.326Z,12.41
2023-03-15T18:25:50.008Z,12.37
2023-03-15T18:30:51.470Z,12.43
2023-03-15T18:35:56.912Z,12.39
2023-03-15T18:41:18.139Z,12.19
2023-03-15T18:46:21.090Z,12.05
2023-03-15T18:51:34.934Z,11.99
2023-03-15T18:56:35.245Z,11.83
2023-03-15T19:01:37.330Z,11.70
2023-03-15T19:06:45.282Z,11.60
2023-03-15T19:11:47.124Z,11.66
2023-03-15T19:16:45.970Z,11.57
2023-03-15T19:21:45.497Z,11.44
2023-03-15T19:26:46.241Z,11.30
2023-03-15T19:31:45.229Z,11.18
2023-03-15T19:36:45.617Z,11.04
2023-03-15T19:41:49.329Z,10.88
2023-03-15T19:46:49.933Z,10.87
2023-03-15T19:51:52.080Z,10.84
2023-03-15T19:56:56.417Z,10.92
2023-03-15T20:02:05.302Z,10.94
2023-03-15T20:07:05.991Z,11.01
2023-03-15T20:12:05.656Z,11.01
2023-03-15T20:17:07.554Z,11.09
2023-03-15T20:22:08.222Z,11.02
2023-03-15T20:27:09.667Z,10.98
2023-03-15T20:32:13.138Z,10.91
2023-03-15T20:37:14.959Z,10.86
2023-03-15T20:42:16.944Z,10.97
2023-03-15T20:47:20.412Z,10.86
2023-03-15T20:52:22.735Z,10.86
2023-03-15T20:57:35.888Z,10.80
2023-03-15T21:02:48.092Z,10.80
2023-03-15T21:07:48.217Z,10.81
2023-03-15T21:12:49.022Z,10.94
2023-03-15T21:17:58.891Z,10.88
2023-03-15T21:22:59.779Z,10.84
2023-03-15T21:28:03.169Z,10.92
2023-03-15T21:33:03.900Z,10.87
2023-03-15T21:38:06.880Z,10.79
2023-03-15T21:43:06.175Z,10.70
2023-03-15T21:48:16.224Z,10.69
2023-03-15T21:53:16.764Z,10.72
2023-03-15T21:58:15.658Z,10.73
2023-03-15T22:03:24.505Z,10.66
2023-03-15T22:08:26.348Z,10.74
2023-03-15T22:13:26.609Z,10.68
2023-03-15T22:18:31.621Z,10.63
2023-03-15T22:23:32.591Z,10.58
2023-03-15T22:28:32.820Z,10.57
2023-03-15T22:33:34.474Z,10.54
2023-03-15T22:38:37.736Z,10.48
2023-03-15T22:44:00.822Z,10.51
2023-03-15T22:49:11.787Z,10.49
2023-03-15T22:54:14.800Z,10.44
2023-03-15T22:59:13.289Z,9.74
2023-03-15T23:04:18.917Z,9.17
2023-03-15T23:09:25.655Z,8.81
2023-03-15T23:14:30.086Z,8.83
2023-03-15T23:19:34.137Z,8.86
2023-03-15T23:24:35.075Z,8.82
2023-03-15T23:29:54.458Z,8.73
2023-03-15T23:34:56.643Z,8.68
2023-03-15T23:39:58.188Z,8.68
2023-03-15T23:45:01.756Z,8.68
2023-03-15T23:50:07.008Z,8.38
2023-03-15T23:55:06.693Z,8.26
